Time;durP1;ratioP1;P1;durP2;ratioP2;P2;SDS_P1;SDS_P2;PMS_P1;PMS_P2;Temp;Humidity;BMP_temperature;BMP_pressure;BME280_temperature;BME280_humidity;BME280_pressure;Samples;Min_cycle;Max_cycle;Signal;HPM_P1;HPM_P2
2022/12/10 00:01:13;;;;;;;51.75;25.15;;;3.50;87.40;;;;;;5007549;28;20033;-63
2022/12/10 00:03:38;;;;;;;51.30;25.80;;;3.50;87.30;;;;;;5010611;28;20167;-62
2022/12/10 00:06:07;;;;;;;53.40;24.77;;;3.60;87.30;;;;;;5013736;28;20504;-63
2022/12/10 00:08:34;;;;;;;51.50;24.58;;;3.60;87.30;;;;;;5015361;28;20044;-63
2022/12/10 00:11:01;;;;;;;51.15;23.95;;;3.60;87.40;;;;;;5013296;28;20044;-63
2022/12/10 00:13:27;;;;;;;55.50;25.80;;;3.60;87.40;;;;;;5017491;28;20420;-63
2022/12/10 00:15:52;;;;;;;51.42;24.73;;;3.60;87.30;;;;;;5016649;28;20061;-62
2022/12/10 00:18:18;;;;;;;57.33;25.35;;;3.60;87.30;;;;;;5016516;28;20696;-63
2022/12/10 00:20:43;;;;;;;59.72;25.58;;;3.70;87.30;;;;;;5005546;28;20105;-63
2022/12/10 00:23:09;;;;;;;59.20;25.20;;;3.70;87.30;;;;;;5001574;28;20065;-64
2022/12/10 00:25:35;;;;;;;69.18;25.75;;;3.70;87.20;;;;;;5004965;28;20026;-63
2022/12/10 00:28:00;;;;;;;56.92;24.35;;;3.70;87.20;;;;;;5005033;28;20089;-63
2022/12/10 00:30:26;;;;;;;55.35;24.50;;;3.70;87.10;;;;;;5004019;28;20040;-63
2022/12/10 00:32:51;;;;;;;65.03;25.10;;;3.70;87.10;;;;;;5009528;28;20546;-63
2022/12/10 00:35:17;;;;;;;56.50;25.13;;;3.70;87.00;;;;;;5004917;28;20541;-63
2022/12/10 00:37:42;;;;;;;78.72;24.65;;;3.70;87.10;;;;;;5014542;28;20041;-62
2022/12/10 00:40:10;;;;;;;65.43;24.45;;;3.70;87.10;;;;;;5015327;28;20045;-62
2022/12/10 00:42:36;;;;;;;53.47;24.30;;;3.70;87.10;;;;;;5013938;28;20034;-63
2022/12/10 00:45:02;;;;;;;65.82;25.15;;;3.70;87.10;;;;;;5015110;28;20097;-63
2022/12/10 00:47:28;;;;;;;63.42;25.67;;;3.70;87.20;;;;;;5012230;28;20568;-64
2022/12/10 00:49:53;;;;;;;64.60;25.98;;;3.70;87.20;;;;;;5003967;28;20034;-63
2022/12/10 00:52:19;;;;;;;66.53;25.77;;;3.70;87.20;;;;;;5003116;28;20029;-64
2022/12/10 00:54:44;;;;;;;61.70;24.63;;;3.70;87.20;;;;;;5004607;28;20025;-64
2022/12/10 00:57:10;;;;;;;60.15;25.27;;;3.70;87.30;;;;;;5005505;28;20256;-63
2022/12/10 00:59:35;;;;;;;57.92;23.95;;;3.80;87.30;;;;;;5004257;28;20146;-63
2022/12/10 01:02:01;;;;;;;62.15;25.10;;;3.80;87.30;;;;;;5006929;28;20623;-63
2022/12/10 01:04:27;;;;;;;74.28;25.77;;;3.80;87.20;;;;;;5007671;28;20524;-66
2022/12/10 01:06:54;;;;;;;60.03;24.40;;;3.80;87.00;;;;;;5005582;28;20037;-63
2022/12/10 01:09:24;;;;;;;66.55;24.83;;;3.80;87.00;;;;;;5004218;28;20041;-63
2022/12/10 01:11:52;;;;;;;50.10;22.27;;;3.80;87.00;;;;;;5002163;28;20053;-63
2022/12/10 01:14:27;;;;;;;56.50;23.73;;;3.70;86.90;;;;;;5004088;28;20037;-63
2022/12/10 01:17:04;;;;;;;56.22;24.02;;;3.70;87.10;;;;;;5001979;28;20042;-62
2022/12/10 01:19:31;;;;;;;52.83;23.77;;;3.80;87.30;;;;;;5006534;28;20060;-64
2022/12/10 01:21:57;;;;;;;48.30;22.33;;;3.70;87.10;;;;;;5001704;28;20502;-63
2022/12/10 01:24:25;;;;;;;57.65;23.20;;;3.70;87.10;;;;;;5001945;28;20038;-63
2022/12/10 01:26:50;;;;;;;48.95;22.58;;;3.70;87.20;;;;;;5005447;28;20029;-63
2022/12/10 01:29:17;;;;;;;55.45;23.13;;;3.70;87.10;;;;;;5004434;28;20151;-63
2022/12/10 01:31:42;;;;;;;80.47;22.98;;;3.70;87.20;;;;;;5003006;28;20042;-64
2022/12/10 01:34:12;;;;;;;55.25;21.92;;;3.70;87.20;;;;;;5010027;28;20457;-64
2022/12/10 01:36:41;;;;;;;57.30;22.00;;;3.70;87.10;;;;;;5004120;28;20042;-64
2022/12/10 01:39:09;;;;;;;67.65;21.70;;;3.70;87.00;;;;;;4988175;28;20145;-63
2022/12/10 01:41:41;;;;;;;58.95;22.58;;;3.70;87.90;;;;;;5002894;28;20103;-64
2022/12/10 01:44:09;;;;;;;47.22;21.23;;;3.70;87.00;;;;;;5004790;28;20033;-63
2022/12/10 01:46:44;;;;;;;45.85;22.08;;;3.70;87.00;;;;;;5002904;28;20038;-64
2022/12/10 01:49:13;;;;;;;49.45;21.70;;;3.70;87.20;;;;;;5006491;28;20040;-63
2022/12/10 01:51:40;;;;;;;48.50;21.48;;;3.70;87.30;;;;;;5004639;28;20476;-63
2022/12/10 01:54:10;;;;;;;52.35;21.45;;;3.70;87.30;;;;;;5003390;28;20029;-62
2022/12/10 01:56:40;;;;;;;48.30;21.98;;;3.70;87.30;;;;;;5007546;28;20040;-63
2022/12/10 01:59:06;;;;;;;50.58;21.48;;;3.70;87.30;;;;;;5008355;28;20532;-64
2022/12/10 02:01:36;;;;;;;48.38;21.27;;;3.70;87.20;;;;;;5007600;28;20038;-63
2022/12/10 02:04:14;;;;;;;49.20;21.10;;;3.70;87.20;;;;;;5004193;28;20038;-60
2022/12/10 02:07:00;;;;;;;50.33;21.55;;;3.70;87.20;;;;;;5005358;28;20030;-62
2022/12/10 02:09:34;;;;;;;49.63;20.33;;;3.70;87.30;;;;;;5010533;28;20128;-63
2022/12/10 02:12:15;;;;;;;63.20;24.85;;;3.70;87.20;;;;;;5002322;28;20045;-62
2022/12/10 02:14:43;;;;;;;67.07;23.17;;;3.60;87.10;;;;;;5004062;28;20037;-63
2022/12/10 02:17:27;;;;;;;52.13;23.10;;;3.60;87.00;;;;;;5009046;28;21468;-63
2022/12/10 02:20:01;;;;;;;56.40;22.17;;;3.60;87.20;;;;;;5005135;28;20088;-63
2022/12/10 02:22:31;;;;;;;68.15;21.92;;;3.50;87.30;;;;;;5009950;28;20034;-65
2022/12/10 02:24:58;;;;;;;62.47;23.20;;;3.50;87.40;;;;;;5001956;28;20525;-62
2022/12/10 02:27:33;;;;;;;65.43;21.48;;;3.50;87.50;;;;;;5005632;28;20484;-63
2022/12/10 02:30:00;;;;;;;46.35;19.70;;;3.50;87.70;;;;;;5008739;28;20121;-64
2022/12/10 02:32:33;;;;;;;60.90;23.15;;;3.40;87.70;;;;;;5004705;28;20042;-63
2022/12/10 02:35:03;;;;;;;52.03;21.15;;;3.40;87.80;;;;;;5007321;28;20048;-63
2022/12/10 02:37:49;;;;;;;78.88;22.20;;;3.40;87.80;;;;;;5017060;28;20046;-64
2022/12/10 02:40:22;;;;;;;54.15;21.42;;;3.50;87.90;;;;;;5016986;28;20038;-64
2022/12/10 02:42:50;;;;;;;59.33;21.85;;;3.50;87.80;;;;;;5015854;28;20033;-62
2022/12/10 02:45:18;;;;;;;56.25;21.42;;;3.50;87.80;;;;;;5014344;28;20417;-61
2022/12/10 02:47:44;;;;;;;54.42;21.60;;;3.40;87.70;;;;;;5014704;28;20032;-63
2022/12/10 02:50:12;;;;;;;52.40;21.33;;;3.50;87.70;;;;;;5009600;28;20505;-63
2022/12/10 02:52:38;;;;;;;53.60;21.60;;;3.50;87.70;;;;;;5009745;28;20037;-63
2022/12/10 02:55:03;;;;;;;53.67;22.20;;;3.50;87.70;;;;;;5009161;28;20045;-63
2022/12/10 02:57:47;;;;;;;62.20;24.30;;;3.40;87.70;;;;;;5012348;28;20119;-62
2022/12/10 03:00:18;;;;;;;59.97;24.02;;;3.40;87.70;;;;;;5011018;28;20043;-62
2022/12/10 03:02:53;;;;;;;56.22;23.25;;;3.40;87.70;;;;;;5013081;28;20461;-63
2022/12/10 03:05:33;;;;;;;59.70;24.23;;;3.40;87.70;;;;;;5012640;28;20048;-62
2022/12/10 03:08:08;;;;;;;57.78;24.15;;;3.40;87.70;;;;;;5010132;28;20037;-63
2022/12/10 03:10:44;;;;;;;59.25;23.95;;;3.40;87.60;;;;;;5008621;28;20045;-63
2022/12/10 03:13:14;;;;;;;55.03;23.70;;;3.40;87.70;;;;;;5005318;28;20040;-63
2022/12/10 03:15:41;;;;;;;60.25;26.35;;;3.30;87.70;;;;;;5006999;28;20034;-63
2022/12/10 03:18:10;;;;;;;57.50;25.08;;;3.30;87.70;;;;;;5006302;28;20041;-63
2022/12/10 03:20:39;;;;;;;50.55;22.08;;;3.30;87.50;;;;;;5004448;28;20416;-64
2022/12/10 03:23:09;;;;;;;54.28;23.52;;;3.20;87.50;;;;;;5008186;28;20037;-62
2022/12/10 03:25:37;;;;;;;53.08;23.35;;;3.20;87.80;;;;;;5006281;28;20452;-62
2022/12/10 03:28:06;;;;;;;53.10;24.35;;;3.20;88.00;;;;;;5018063;28;20182;-62
2022/12/10 03:30:33;;;;;;;53.10;22.85;;;3.20;88.00;;;;;;5018319;28;20037;-61
2022/12/10 03:33:00;;;;;;;49.08;22.48;;;3.20;88.00;;;;;;5017708;28;20286;-62
2022/12/10 03:35:26;;;;;;;54.58;23.42;;;3.20;88.00;;;;;;5017645;28;20599;-63
2022/12/10 03:37:52;;;;;;;48.53;21.50;;;3.20;88.00;;;;;;5018632;28;20088;-63
2022/12/10 03:40:22;;;;;;;47.17;22.88;;;3.20;88.20;;;;;;5018550;28;20445;-63
2022/12/10 03:42:47;;;;;;;49.72;22.90;;;3.20;88.30;;;;;;5014340;28;20034;-63
2022/12/10 03:45:13;;;;;;;46.35;22.35;;;3.20;88.20;;;;;;5016541;28;20030;-63
2022/12/10 03:47:40;;;;;;;47.83;21.55;;;3.20;88.00;;;;;;5017734;28;20592;-63
2022/12/10 03:50:06;;;;;;;49.15;21.65;;;3.20;88.10;;;;;;5015731;28;20091;-61
2022/12/10 03:52:32;;;;;;;43.78;21.02;;;3.20;88.10;;;;;;4997759;28;20034;-62
2022/12/10 03:54:57;;;;;;;40.33;20.80;;;3.20;88.20;;;;;;5015256;28;20436;-62
2022/12/10 03:57:23;;;;;;;42.28;21.27;;;3.20;88.10;;;;;;5015644;28;20563;-63
2022/12/10 03:59:49;;;;;;;43.20;20.75;;;3.20;88.10;;;;;;5015125;28;20473;-62
2022/12/10 04:02:14;;;;;;;41.75;20.02;;;3.20;88.00;;;;;;5013700;28;20045;-61
2022/12/10 04:04:40;;;;;;;43.45;21.98;;;3.30;88.00;;;;;;5014304;28;20034;-63
2022/12/10 04:07:05;;;;;;;40.85;20.15;;;3.30;87.90;;;;;;5013492;28;20129;-63
2022/12/10 04:09:31;;;;;;;38.42;20.60;;;3.40;87.90;;;;;;5013989;28;20041;-63
2022/12/10 04:11:58;;;;;;;39.95;19.75;;;3.30;87.90;;;;;;5011061;28;20087;-63
2022/12/10 04:17:08;;;;;;;40.70;20.60;;;3.30;87.90;;;;;;5017676;28;20041;-63
2022/12/10 04:19:35;;;;;;;37.13;19.00;;;3.40;87.80;;;;;;5013026;28;20045;-63
2022/12/10 04:27:32;;;;;;;35.80;18.87;;;3.40;87.60;;;;;;5013352;28;20319;-63
2022/12/10 04:29:59;;;;;;;35.33;18.90;;;3.40;87.50;;;;;;5013883;28;20669;-63
2022/12/10 04:32:26;;;;;;;37.60;19.60;;;3.40;87.40;;;;;;5013017;28;20051;-63
2022/12/10 04:34:52;;;;;;;35.30;19.40;;;3.40;87.30;;;;;;5013775;28;20575;-63
2022/12/10 04:37:18;;;;;;;37.72;19.77;;;3.40;87.30;;;;;;5014545;28;20045;-62
2022/12/10 04:39:44;;;;;;;36.80;19.58;;;3.40;87.20;;;;;;5014026;28;20092;-63
2022/12/10 04:42:10;;;;;;;37.83;19.70;;;3.40;87.20;;;;;;5015331;28;20521;-63
2022/12/10 04:44:39;;;;;;;34.28;19.25;;;3.40;87.20;;;;;;5014216;28;20387;-62
2022/12/10 04:47:07;;;;;;;37.33;20.00;;;3.40;87.10;;;;;;5015750;28;20088;-62
2022/12/10 04:49:32;;;;;;;39.03;20.45;;;3.40;87.10;;;;;;5013664;28;20091;-63
2022/12/10 04:51:58;;;;;;;37.83;19.77;;;3.40;87.10;;;;;;5013438;28;20045;-62
2022/12/10 04:54:24;;;;;;;43.63;21.90;;;3.40;87.10;;;;;;5012947;28;20061;-63
2022/12/10 04:56:50;;;;;;;38.55;20.98;;;3.40;87.10;;;;;;5014071;28;20052;-63
2022/12/10 04:59:15;;;;;;;40.00;20.42;;;3.40;87.10;;;;;;5015147;28;20042;-63
2022/12/10 05:01:41;;;;;;;43.75;23.10;;;3.30;87.10;;;;;;5015215;28;20112;-63
2022/12/10 05:04:10;;;;;;;40.53;21.63;;;3.30;87.20;;;;;;5014961;28;20505;-63
2022/12/10 05:06:36;;;;;;;39.40;20.55;;;3.30;87.00;;;;;;5015852;28;20066;-63
2022/12/10 05:09:04;;;;;;;43.25;21.70;;;3.20;87.00;;;;;;5016752;28;20100;-62
2022/12/10 05:11:31;;;;;;;43.60;22.85;;;3.20;87.30;;;;;;5015401;28;20045;-61
2022/12/10 05:13:57;;;;;;;42.25;22.88;;;3.20;87.50;;;;;;5014796;28;20038;-63
2022/12/10 05:16:26;;;;;;;43.22;22.27;;;3.20;87.50;;;;;;5012152;28;20080;-62
2022/12/10 05:18:54;;;;;;;47.20;25.20;;;3.20;87.40;;;;;;5013980;28;20045;-62
2022/12/10 05:21:21;;;;;;;39.80;22.40;;;3.20;87.50;;;;;;5012083;28;20064;-63
2022/12/10 05:23:49;;;;;;;39.25;22.00;;;3.20;87.50;;;;;;5013871;28;20046;-63
2022/12/10 05:26:23;;;;;;;42.60;23.27;;;3.20;87.50;;;;;;5009878;28;20046;-63
2022/12/10 05:28:55;;;;;;;40.60;21.67;;;3.20;87.30;;;;;;5002311;28;20034;-60
2022/12/10 05:31:22;;;;;;;43.55;24.67;;;3.20;87.20;;;;;;5009417;28;20048;-63
2022/12/10 05:33:48;;;;;;;44.97;24.20;;;3.20;87.20;;;;;;5014692;28;20030;-63
2022/12/10 05:36:16;;;;;;;43.88;23.25;;;3.10;86.90;;;;;;5012840;28;20037;-63
2022/12/10 05:38:42;;;;;;;39.45;22.88;;;3.10;87.00;;;;;;5014725;28;20033;-63
2022/12/10 05:41:18;;;;;;;39.47;22.77;;;3.10;87.30;;;;;;5014230;28;20087;-62
2022/12/10 05:43:45;;;;;;;42.50;23.90;;;3.10;87.50;;;;;;5014783;28;20482;-63
2022/12/10 05:46:13;;;;;;;41.28;22.52;;;3.10;87.50;;;;;;5015582;28;20038;-62
2022/12/10 05:48:39;;;;;;;39.72;22.58;;;3.10;87.60;;;;;;5011075;28;20104;-63
2022/12/10 05:51:14;;;;;;;43.45;23.15;;;3.10;87.50;;;;;;5014879;28;20120;-63
2022/12/10 05:53:40;;;;;;;40.53;23.45;;;3.00;87.30;;;;;;5012740;28;20066;-63
2022/12/10 05:56:09;;;;;;;40.67;23.25;;;3.00;87.20;;;;;;4996253;28;20034;-63
2022/12/10 05:58:36;;;;;;;40.35;22.85;;;3.00;87.00;;;;;;5011037;28;20135;-61
2022/12/10 06:01:07;;;;;;;42.75;22.13;;;2.90;87.00;;;;;;5004660;28;20038;-63
2022/12/10 06:03:32;;;;;;;38.67;21.42;;;2.80;87.30;;;;;;5007655;28;20117;-63
2022/12/10 06:05:58;;;;;;;39.38;21.85;;;2.80;87.30;;;;;;5004432;28;20022;-63
2022/12/10 06:08:23;;;;;;;38.55;21.27;;;2.80;87.50;;;;;;5006205;28;20261;-62
2022/12/10 06:10:49;;;;;;;38.45;22.13;;;2.80;87.60;;;;;;5007311;28;20159;-62
2022/12/10 06:13:15;;;;;;;35.28;20.58;;;2.80;87.70;;;;;;5011848;28;20037;-63
2022/12/10 06:15:42;;;;;;;35.28;20.67;;;2.80;87.80;;;;;;5007910;28;20084;-61
2022/12/10 06:18:07;;;;;;;38.10;20.70;;;2.80;87.90;;;;;;5011104;28;20030;-61
2022/12/10 06:20:34;;;;;;;39.28;20.75;;;2.80;87.90;;;;;;5009122;28;20034;-62
2022/12/10 06:22:59;;;;;;;37.05;21.20;;;2.80;87.90;;;;;;5008427;28;20061;-63
2022/12/10 06:25:25;;;;;;;37.35;21.35;;;2.80;87.90;;;;;;5004576;28;20497;-62
2022/12/10 06:27:50;;;;;;;35.60;20.17;;;2.80;87.80;;;;;;5009590;28;20033;-62
2022/12/10 06:30:16;;;;;;;35.17;19.85;;;2.80;87.70;;;;;;5010836;28;20091;-61
2022/12/10 06:32:44;;;;;;;34.30;19.98;;;2.80;87.70;;;;;;5006866;28;20309;-63
2022/12/10 06:35:10;;;;;;;33.28;18.95;;;2.80;87.70;;;;;;5009036;28;20394;-63
2022/12/10 06:37:36;;;;;;;33.85;19.27;;;2.90;87.70;;;;;;5018657;28;20045;-62
2022/12/10 06:40:03;;;;;;;38.22;21.95;;;2.90;87.70;;;;;;5016526;28;20041;-62
2022/12/10 06:42:29;;;;;;;37.38;20.48;;;2.90;87.60;;;;;;5018344;28;20038;-61
2022/12/10 06:44:54;;;;;;;32.42;19.48;;;2.90;87.50;;;;;;5017008;28;20034;-62
2022/12/10 06:47:20;;;;;;;36.15;19.98;;;2.90;87.50;;;;;;5015614;28;20088;-63
2022/12/10 06:49:45;;;;;;;34.75;20.15;;;2.90;87.50;;;;;;5016685;28;20038;-62
2022/12/10 06:52:11;;;;;;;35.47;19.98;;;2.90;87.60;;;;;;5014809;28;20038;-63
2022/12/10 06:54:37;;;;;;;34.88;20.02;;;2.90;87.50;;;;;;5014347;28;20033;-63
2022/12/10 06:57:03;;;;;;;34.00;20.38;;;2.90;87.60;;;;;;5017714;28;20468;-62
2022/12/10 06:59:28;;;;;;;35.00;20.00;;;2.90;87.60;;;;;;5015752;28;20048;-63
2022/12/10 07:01:54;;;;;;;36.38;20.42;;;2.90;87.60;;;;;;5017759;28;20374;-63
2022/12/10 07:04:19;;;;;;;36.28;20.90;;;2.90;87.50;;;;;;5017801;28;20044;-63
2022/12/10 07:06:45;;;;;;;32.58;19.60;;;2.90;87.50;;;;;;5017285;28;20132;-63
2022/12/10 07:09:10;;;;;;;34.25;19.80;;;3.00;87.50;;;;;;5018794;28;20054;-61
2022/12/10 07:11:36;;;;;;;33.97;19.67;;;2.90;87.30;;;;;;5015703;28;20029;-62
2022/12/10 07:14:02;;;;;;;33.63;19.67;;;2.90;87.30;;;;;;5018383;28;20567;-63
2022/12/10 07:16:30;;;;;;;35.38;20.55;;;3.00;87.30;;;;;;5015561;28;20042;-62
2022/12/10 07:18:58;;;;;;;34.63;19.67;;;3.00;87.30;;;;;;5014758;28;20437;-62
2022/12/10 07:21:24;;;;;;;34.80;19.55;;;2.80;87.20;;;;;;5014057;28;20528;-62
2022/12/10 07:23:51;;;;;;;37.65;19.60;;;3.00;87.20;;;;;;5013524;28;20063;-61
2022/12/10 07:26:17;;;;;;;34.53;20.05;;;3.00;87.00;;;;;;5012718;28;20049;-62
2022/12/10 07:28:42;;;;;;;35.42;20.13;;;2.90;86.80;;;;;;5016126;28;20033;-63
2022/12/10 07:31:09;;;;;;;33.85;19.67;;;2.90;86.80;;;;;;5014650;28;20477;-63
2022/12/10 07:33:35;;;;;;;35.35;20.63;;;2.90;87.00;;;;;;5016466;28;20030;-62
2022/12/10 07:36:10;;;;;;;35.92;19.65;;;2.90;87.10;;;;;;5016927;28;20045;-62
2022/12/10 07:38:36;;;;;;;36.58;21.05;;;2.90;87.10;;;;;;5016159;28;20069;-63
2022/12/10 07:41:04;;;;;;;33.78;19.58;;;2.90;87.00;;;;;;5017010;28;20481;-61
2022/12/10 07:43:29;;;;;;;33.25;19.45;;;2.80;86.90;;;;;;5013645;28;20514;-63
2022/12/10 07:45:55;;;;;;;33.05;19.00;;;2.80;87.00;;;;;;5006718;28;20034;-61
2022/12/10 07:48:21;;;;;;;32.95;19.23;;;2.80;87.20;;;;;;5006439;28;20393;-62
2022/12/10 07:50:47;;;;;;;35.50;19.15;;;2.80;87.30;;;;;;5005303;28;20050;-62
2022/12/10 07:53:12;;;;;;;33.28;18.92;;;2.80;87.30;;;;;;5003378;28;20088;-61
2022/12/10 07:55:38;;;;;;;34.50;20.30;;;2.80;87.40;;;;;;5005959;28;20033;-62
2022/12/10 07:58:03;;;;;;;34.78;18.77;;;2.80;87.50;;;;;;5007375;28;20038;-63
2022/12/10 08:00:29;;;;;;;33.75;19.92;;;2.80;87.50;;;;;;5005847;28;20245;-63
2022/12/10 08:02:55;;;;;;;33.47;19.20;;;2.80;87.60;;;;;;5007671;28;20493;-63
2022/12/10 08:05:20;;;;;;;29.92;18.30;;;2.80;87.50;;;;;;5007822;28;20057;-62
2022/12/10 08:07:46;;;;;;;32.70;18.55;;;2.80;87.60;;;;;;5012288;28;20520;-62
2022/12/10 08:10:11;;;;;;;33.35;19.05;;;2.80;87.50;;;;;;5003114;28;20508;-63
2022/12/10 08:12:37;;;;;;;33.83;19.63;;;2.90;87.60;;;;;;5007436;28;20037;-62
2022/12/10 08:15:03;;;;;;;33.08;19.08;;;2.90;87.50;;;;;;5008025;28;20034;-63
2022/12/10 08:17:28;;;;;;;32.50;20.02;;;2.90;87.50;;;;;;4999943;28;20049;-63
2022/12/10 08:19:54;;;;;;;35.38;20.85;;;2.90;87.50;;;;;;5004580;28;20042;-63
2022/12/10 08:22:20;;;;;;;35.30;20.08;;;2.90;87.30;;;;;;5002999;28;20457;-62
2022/12/10 08:24:46;;;;;;;35.10;20.27;;;2.90;87.30;;;;;;5002170;28;20033;-61
2022/12/10 08:27:12;;;;;;;38.20;21.15;;;2.90;87.40;;;;;;5001451;28;20045;-61
2022/12/10 08:29:40;;;;;;;36.30;19.30;;;2.90;87.50;;;;;;5005266;28;20045;-62
2022/12/10 08:32:06;;;;;;;36.80;20.80;;;2.90;87.50;;;;;;5003919;28;20034;-61
2022/12/10 08:34:31;;;;;;;41.65;23.48;;;2.90;87.60;;;;;;5008895;28;20048;-63
2022/12/10 08:36:57;;;;;;;38.28;21.98;;;2.90;87.40;;;;;;5012934;28;20069;-62
2022/12/10 08:39:22;;;;;;;39.40;21.98;;;2.90;87.20;;;;;;5018373;28;20549;-61
2022/12/10 08:41:48;;;;;;;37.97;22.30;;;2.90;87.20;;;;;;5015905;28;20040;-61
2022/12/10 08:44:14;;;;;;;37.35;21.67;;;2.80;87.00;;;;;;5014827;28;20501;-62
2022/12/10 08:46:40;;;;;;;39.92;22.88;;;2.80;87.10;;;;;;5015954;28;20044;-62
2022/12/10 08:49:08;;;;;;;37.55;21.05;;;2.80;87.30;;;;;;5010590;28;20410;-62
2022/12/10 08:51:34;;;;;;;37.90;22.27;;;2.70;87.30;;;;;;5004271;28;20550;-62
2022/12/10 08:54:00;;;;;;;36.33;21.92;;;2.70;87.60;;;;;;5004390;28;20168;-62
2022/12/10 08:56:25;;;;;;;36.95;20.70;;;2.70;87.80;;;;;;5004917;28;20034;-62
2022/12/10 08:58:51;;;;;;;38.08;21.88;;;2.70;88.00;;;;;;5002545;28;20042;-61
2022/12/10 09:01:18;;;;;;;36.10;20.48;;;2.70;88.10;;;;;;5006472;28;20505;-61
2022/12/10 09:03:44;;;;;;;39.35;21.45;;;2.70;88.00;;;;;;5001892;28;20037;-60
2022/12/10 09:06:13;;;;;;;35.10;20.60;;;2.80;88.00;;;;;;5010086;28;20068;-62
2022/12/10 09:08:39;;;;;;;36.00;21.02;;;2.80;88.00;;;;;;5002862;28;20071;-62
2022/12/10 09:11:10;;;;;;;36.72;20.27;;;2.80;88.00;;;;;;5003227;28;20160;-61
2022/12/10 09:13:36;;;;;;;35.35;20.52;;;2.80;88.10;;;;;;5005529;28;20040;-62
2022/12/10 09:16:02;;;;;;;35.35;20.60;;;2.90;88.00;;;;;;5006388;28;20030;-60
2022/12/10 09:18:28;;;;;;;38.33;21.83;;;2.90;87.70;;;;;;5005359;28;20049;-62
2022/12/10 09:20:53;;;;;;;35.95;19.63;;;2.90;87.50;;;;;;5004618;28;22131;-62
2022/12/10 09:23:19;;;;;;;37.22;20.48;;;2.90;87.50;;;;;;5005006;28;20534;-61
2022/12/10 09:25:44;;;;;;;37.17;20.73;;;2.90;87.50;;;;;;5003604;28;20525;-62
2022/12/10 09:28:10;;;;;;;34.58;19.73;;;2.90;87.50;;;;;;5006561;28;20040;-61
2022/12/10 09:30:36;;;;;;;34.78;19.85;;;2.90;87.50;;;;;;5002808;28;21808;-60
2022/12/10 09:33:02;;;;;;;37.95;22.20;;;2.90;87.60;;;;;;5009040;28;20057;-62
2022/12/10 09:35:27;;;;;;;39.25;21.80;;;2.90;87.30;;;;;;5004777;28;20435;-61
2022/12/10 09:37:53;;;;;;;37.28;20.98;;;2.90;87.10;;;;;;5008343;28;20041;-60
2022/12/10 09:40:57;;;;;;;36.50;20.38;;;2.90;87.40;;;;;;5003599;28;21092;-61
2022/12/10 09:43:46;;;;;;;35.30;20.40;;;2.90;87.70;;;;;;4922275;29;20078;-62
2022/12/10 09:46:24;;;;;;;35.53;20.70;;;3.00;87.70;;;;;;5002163;28;20037;-62
2022/12/10 09:49:01;;;;;;;35.60;21.02;;;3.00;87.70;;;;;;5013436;28;20488;-60
2022/12/10 09:51:31;;;;;;;37.75;20.95;;;3.00;87.70;;;;;;5010515;28;20461;-62
2022/12/10 09:54:00;;;;;;;40.17;21.65;;;3.10;87.70;;;;;;5009393;28;20561;-61
2022/12/10 09:56:32;;;;;;;39.13;20.63;;;3.10;87.30;;;;;;5014891;28;20042;-63
2022/12/10 09:59:03;;;;;;;36.65;21.02;;;3.10;87.50;;;;;;5002469;28;20042;-63
2022/12/10 10:01:30;;;;;;;36.03;20.90;;;3.10;87.50;;;;;;5008580;28;20504;-62
2022/12/10 10:03:56;;;;;;;36.20;20.85;;;3.10;87.70;;;;;;5010377;28;20041;-61
2022/12/10 10:06:23;;;;;;;35.28;20.35;;;3.10;87.70;;;;;;5006080;28;20396;-60
2022/12/10 10:08:53;;;;;;;36.95;21.50;;;3.20;87.90;;;;;;5010579;28;20038;-60
2022/12/10 10:11:24;;;;;;;36.05;20.92;;;3.30;87.90;;;;;;5003544;28;20112;-61
2022/12/10 10:13:57;;;;;;;41.67;22.52;;;3.30;87.70;;;;;;5004989;28;20323;-63
2022/12/10 10:16:32;;;;;;;37.17;21.88;;;3.40;88.20;;;;;;5003743;28;20045;-63
2022/12/10 10:18:59;;;;;;;34.83;20.88;;;3.50;87.30;;;;;;5005835;28;20390;-62
2022/12/10 10:21:38;;;;;;;36.38;20.15;;;3.40;86.80;;;;;;5012511;28;20037;-63
2022/12/10 10:24:06;;;;;;;32.50;20.40;;;3.40;86.60;;;;;;5012466;28;20045;-63
2022/12/10 10:26:32;;;;;;;35.90;19.48;;;3.40;86.50;;;;;;5008607;28;20057;-61
2022/12/10 10:29:05;;;;;;;37.17;21.42;;;3.40;86.60;;;;;;5012552;28;20038;-62
2022/12/10 10:31:33;;;;;;;34.25;19.38;;;3.40;86.50;;;;;;5011052;28;20347;-62
2022/12/10 10:34:05;;;;;;;34.75;19.60;;;3.40;86.50;;;;;;5012379;28;20029;-63
2022/12/10 10:36:36;;;;;;;36.45;20.27;;;3.50;86.50;;;;;;5013353;28;20042;-62
2022/12/10 10:39:20;;;;;;;32.80;18.50;;;3.50;86.20;;;;;;5014645;28;20467;-62
2022/12/10 10:41:50;;;;;;;32.40;19.23;;;3.50;85.80;;;;;;5014779;28;20033;-62
2022/12/10 10:44:19;;;;;;;36.67;21.13;;;3.50;86.10;;;;;;5015026;28;20042;-62
2022/12/10 10:46:47;;;;;;;40.92;22.50;;;3.50;86.30;;;;;;5013542;28;20798;-63
2022/12/10 10:49:25;;;;;;;35.92;21.40;;;3.60;86.40;;;;;;5012172;28;20060;-63
2022/12/10 10:51:53;;;;;;;29.15;18.27;;;3.60;86.20;;;;;;5011128;28;20033;-62
2022/12/10 10:54:38;;;;;;;31.35;16.92;;;3.60;86.00;;;;;;5013842;28;20085;-61
2022/12/10 10:57:12;;;;;;;27.67;16.50;;;3.70;85.00;;;;;;5012414;28;20030;-63
2022/12/10 10:59:38;;;;;;;31.38;17.35;;;3.70;85.00;;;;;;5009411;28;20140;-62
2022/12/10 11:02:21;;;;;;;30.92;18.45;;;3.70;85.00;;;;;;5015909;28;20045;-63
2022/12/10 11:04:50;;;;;;;31.05;18.50;;;3.70;84.60;;;;;;5010100;28;20044;-62
2022/12/10 11:07:34;;;;;;;29.75;17.25;;;3.70;84.80;;;;;;5016619;28;20103;-63
2022/12/10 11:10:01;;;;;;;34.30;18.65;;;3.70;84.70;;;;;;5014895;28;20037;-62
2022/12/10 11:12:38;;;;;;;33.22;19.08;;;3.70;84.90;;;;;;5014517;28;20034;-63
2022/12/10 11:15:22;;;;;;;32.50;18.67;;;3.70;84.40;;;;;;5016253;28;20237;-63
2022/12/10 11:17:53;;;;;;;29.95;18.60;;;3.70;84.20;;;;;;5015686;28;20034;-63
2022/12/10 11:20:21;;;;;;;30.02;18.02;;;3.70;83.90;;;;;;5012905;28;20041;-63
2022/12/10 11:23:12;;;;;;;31.58;19.42;;;3.60;83.90;;;;;;5015958;28;20637;-63
2022/12/10 11:25:46;;;;;;;29.20;18.40;;;3.60;83.70;;;;;;5013376;28;20037;-63
2022/12/10 11:28:23;;;;;;;27.80;16.30;;;3.50;84.10;;;;;;5016495;28;20064;-63
2022/12/10 11:31:03;;;;;;;27.63;16.45;;;3.50;84.00;;;;;;5015612;28;20037;-63
2022/12/10 11:33:41;;;;;;;27.23;15.88;;;3.40;83.40;;;;;;5015199;28;20041;-62
2022/12/10 11:36:25;;;;;;;25.77;15.93;;;3.40;83.30;;;;;;5015641;28;20217;-63
2022/12/10 11:39:00;;;;;;;18.27;10.83;;;3.30;83.20;;;;;;5015743;28;20041;-63
2022/12/10 11:41:31;;;;;;;;;;;3.30;83.30;;;;;;5016804;28;20120;-62
2022/12/10 11:43:59;;;;;;;22.05;12.65;;;3.20;82.90;;;;;;5014527;28;19913;-63
2022/12/10 11:46:48;;;;;;;22.17;13.30;;;3.10;83.60;;;;;;5015985;28;20034;-63
2022/12/10 11:49:16;;;;;;;22.40;13.32;;;3.10;83.80;;;;;;5014928;28;20042;-63
2022/12/10 11:51:48;;;;;;;22.88;13.75;;;3.10;84.30;;;;;;5012829;28;20033;-62
2022/12/10 11:54:32;;;;;;;23.58;13.82;;;3.00;84.50;;;;;;5013104;28;20041;-63
2022/12/10 11:57:06;;;;;;;25.75;15.07;;;3.10;84.80;;;;;;5010777;28;20504;-63
2022/12/10 11:59:40;;;;;;;24.17;14.68;;;3.10;84.70;;;;;;5018083;28;20119;-63
2022/12/10 12:02:24;;;;;;;22.48;13.85;;;3.10;84.50;;;;;;5014532;28;20064;-63
2022/12/10 12:05:12;;;;;;;22.50;13.48;;;3.10;84.50;;;;;;5013481;28;20038;-64
2022/12/10 12:07:48;;;;;;;20.50;13.10;;;3.10;84.20;;;;;;5016244;28;20058;-63
2022/12/10 12:10:39;;;;;;;20.95;13.02;;;3.10;85.40;;;;;;5016476;28;20044;-63
2022/12/10 12:13:24;;;;;;;24.98;14.82;;;3.10;85.00;;;;;;5014946;28;20117;-63
2022/12/10 12:15:58;;;;;;;26.05;14.63;;;3.20;84.90;;;;;;5016724;28;20073;-64
2022/12/10 12:18:44;;;;;;;22.83;13.98;;;3.20;84.90;;;;;;5016542;28;20046;-63
2022/12/10 12:21:12;;;;;;;22.35;12.80;;;3.20;84.50;;;;;;5015393;28;20034;-64
2022/12/10 12:24:05;;;;;;;21.98;13.65;;;3.20;84.00;;;;;;5014860;28;20034;-63
2022/12/10 12:26:46;;;;;;;18.05;11.90;;;3.10;83.70;;;;;;5013977;28;20104;-64
2022/12/10 12:29:19;;;;;;;17.80;11.32;;;3.00;83.80;;;;;;5015676;28;20029;-63
2022/12/10 12:31:57;;;;;;;16.35;10.63;;;2.90;83.60;;;;;;5013085;28;20404;-64
2022/12/10 12:34:26;;;;;;;15.85;10.07;;;2.80;83.50;;;;;;5016404;28;20038;-64
2022/12/10 12:36:52;;;;;;;14.60;9.23;;;2.80;83.80;;;;;;5015356;28;20401;-63
2022/12/10 12:39:24;;;;;;;15.77;9.88;;;2.70;84.10;;;;;;5013461;28;20042;-63
2022/12/10 12:42:14;;;;;;;16.20;10.02;;;2.60;84.40;;;;;;5010630;28;20049;-63
2022/12/10 12:44:55;;;;;;;17.52;10.35;;;2.50;84.50;;;;;;5013017;28;20037;-63
2022/12/10 12:47:45;;;;;;;17.88;11.13;;;2.50;85.80;;;;;;5014317;28;20049;-63
2022/12/10 12:50:44;;;;;;;16.98;10.10;;;2.50;86.10;;;;;;5013954;28;20048;-63
2022/12/10 12:53:16;;;;;;;16.42;10.50;;;2.50;85.40;;;;;;4998039;28;20088;-64
2022/12/10 12:56:16;;;;;;;18.73;11.20;;;2.60;85.70;;;;;;5011329;28;20038;-64
2022/12/10 12:58:51;;;;;;;17.83;11.05;;;2.60;86.00;;;;;;5010719;28;20129;-64